sensor_id;sensor_type;location;lat;lon;timestamp;P1;durP1;ratioP1;P2;durP2;ratioP2
63093;SDS011;49183;51.380;0.098;2023-05-07T00:02:15;16.27;;;7.55;;
63093;SDS011;49183;51.380;0.098;2023-05-07T00:04:43;18.10;;;9.55;;
63093;SDS011;49183;51.380;0.098;2023-05-07T00:07:11;18.88;;;9.38;;
63093;SDS011;49183;51.380;0.098;2023-05-07T00:09:38;19.27;;;9.35;;
63093;SDS011;49183;51.380;0.098;2023-05-07T00:12:07;19.25;;;10.10;;
63093;SDS011;49183;51.380;0.098;2023-05-07T00:14:34;26.23;;;12.20;;
63093;SDS011;49183;51.380;0.098;2023-05-07T00:17:02;25.55;;;11.43;;
63093;SDS011;49183;51.380;0.098;2023-05-07T00:19:30;29.23;;;13.15;;
63093;SDS011;49183;51.380;0.098;2023-05-07T00:21:58;34.42;;;13.45;;
63093;SDS011;49183;51.380;0.098;2023-05-07T00:24:26;36.67;;;12.98;;
63093;SDS011;49183;51.380;0.098;2023-05-07T00:26:54;27.45;;;13.70;;
63093;SDS011;49183;51.380;0.098;2023-05-07T00:29:21;32.28;;;15.55;;
63093;SDS011;49183;51.380;0.098;2023-05-07T00:31:49;37.20;;;14.18;;
63093;SDS011;49183;51.380;0.098;2023-05-07T00:34:18;37.88;;;16.45;;
63093;SDS011;49183;51.380;0.098;2023-05-07T00:36:46;36.70;;;16.75;;
63093;SDS011;49183;51.380;0.098;2023-05-07T00:39:13;35.72;;;13.85;;
63093;SDS011;49183;51.380;0.098;2023-05-07T00:41:41;31.93;;;13.67;;
63093;SDS011;49183;51.380;0.098;2023-05-07T00:44:09;37.50;;;15.25;;
63093;SDS011;49183;51.380;0.098;2023-05-07T00:46:37;34.05;;;14.88;;
63093;SDS011;49183;51.380;0.098;2023-05-07T00:49:05;32.33;;;14.65;;
63093;SDS011;49183;51.380;0.098;2023-05-07T00:51:33;29.52;;;14.27;;
63093;SDS011;49183;51.380;0.098;2023-05-07T00:54:02;35.78;;;14.70;;
63093;SDS011;49183;51.380;0.098;2023-05-07T00:56:30;30.17;;;14.20;;
63093;SDS011;49183;51.380;0.098;2023-05-07T00:58:58;35.10;;;15.95;;
63093;SDS011;49183;51.380;0.098;2023-05-07T01:01:27;30.88;;;14.98;;
63093;SDS011;49183;51.380;0.098;2023-05-07T01:03:55;27.65;;;14.23;;
63093;SDS011;49183;51.380;0.098;2023-05-07T01:06:24;31.52;;;14.35;;
63093;SDS011;49183;51.380;0.098;2023-05-07T01:08:55;30.23;;;14.57;;
63093;SDS011;49183;51.380;0.098;2023-05-07T01:11:24;32.30;;;14.25;;
63093;SDS011;49183;51.380;0.098;2023-05-07T01:13:52;25.85;;;13.68;;
63093;SDS011;49183;51.380;0.098;2023-05-07T01:16:20;28.80;;;12.88;;
63093;SDS011;49183;51.380;0.098;2023-05-07T01:18:49;29.17;;;14.07;;
63093;SDS011;49183;51.380;0.098;2023-05-07T01:21:17;21.98;;;12.55;;
63093;SDS011;49183;51.380;0.098;2023-05-07T01:23:45;25.98;;;13.65;;
63093;SDS011;49183;51.380;0.098;2023-05-07T01:26:14;28.10;;;14.07;;
63093;SDS011;49183;51.380;0.098;2023-05-07T01:28:45;23.77;;;13.32;;
63093;SDS011;49183;51.380;0.098;2023-05-07T01:31:12;25.70;;;13.10;;
63093;SDS011;49183;51.380;0.098;2023-05-07T01:33:43;22.75;;;12.98;;
63093;SDS011;49183;51.380;0.098;2023-05-07T01:36:12;24.30;;;13.88;;
63093;SDS011;49183;51.380;0.098;2023-05-07T01:38:41;21.20;;;12.45;;
63093;SDS011;49183;51.380;0.098;2023-05-07T01:41:09;23.45;;;13.55;;
63093;SDS011;49183;51.380;0.098;2023-05-07T01:43:39;23.35;;;13.52;;
63093;SDS011;49183;51.380;0.098;2023-05-07T01:46:08;23.08;;;13.70;;
63093;SDS011;49183;51.380;0.098;2023-05-07T01:48:37;21.52;;;14.45;;
63093;SDS011;49183;51.380;0.098;2023-05-07T01:51:05;25.45;;;13.45;;
63093;SDS011;49183;51.380;0.098;2023-05-07T01:53:38;19.75;;;12.10;;
63093;SDS011;49183;51.380;0.098;2023-05-07T01:56:07;24.00;;;13.25;;
63093;SDS011;49183;51.380;0.098;2023-05-07T01:58:37;21.00;;;12.60;;
63093;SDS011;49183;51.380;0.098;2023-05-07T02:01:05;18.92;;;11.93;;
63093;SDS011;49183;51.380;0.098;2023-05-07T02:03:33;19.83;;;12.05;;
63093;SDS011;49183;51.380;0.098;2023-05-07T02:06:08;21.50;;;13.43;;
63093;SDS011;49183;51.380;0.098;2023-05-07T02:08:38;22.20;;;13.50;;
63093;SDS011;49183;51.380;0.098;2023-05-07T02:11:06;25.25;;;14.30;;
63093;SDS011;49183;51.380;0.098;2023-05-07T02:16:03;24.15;;;13.50;;
63093;SDS011;49183;51.380;0.098;2023-05-07T02:18:31;22.73;;;13.50;;
63093;SDS011;49183;51.380;0.098;2023-05-07T02:20:59;23.17;;;13.60;;
63093;SDS011;49183;51.380;0.098;2023-05-07T02:23:26;23.90;;;15.15;;
63093;SDS011;49183;51.380;0.098;2023-05-07T02:25:54;23.90;;;14.13;;
63093;SDS011;49183;51.380;0.098;2023-05-07T02:28:22;26.38;;;15.18;;
63093;SDS011;49183;51.380;0.098;2023-05-07T02:30:57;29.88;;;15.95;;
63093;SDS011;49183;51.380;0.098;2023-05-07T02:33:27;30.33;;;16.55;;
63093;SDS011;49183;51.380;0.098;2023-05-07T02:35:56;31.15;;;16.45;;
63093;SDS011;49183;51.380;0.098;2023-05-07T02:38:23;29.48;;;16.50;;
63093;SDS011;49183;51.380;0.098;2023-05-07T02:40:51;30.35;;;17.10;;
63093;SDS011;49183;51.380;0.098;2023-05-07T02:43:19;31.13;;;16.40;;
63093;SDS011;49183;51.380;0.098;2023-05-07T02:45:48;30.95;;;16.13;;
63093;SDS011;49183;51.380;0.098;2023-05-07T02:48:16;36.17;;;17.67;;
63093;SDS011;49183;51.380;0.098;2023-05-07T02:50:44;37.15;;;18.42;;
63093;SDS011;49183;51.380;0.098;2023-05-07T02:53:13;34.05;;;18.88;;
63093;SDS011;49183;51.380;0.098;2023-05-07T02:55:41;35.05;;;18.10;;
63093;SDS011;49183;51.380;0.098;2023-05-07T02:58:09;30.77;;;17.52;;
63093;SDS011;49183;51.380;0.098;2023-05-07T03:00:38;27.60;;;17.25;;
63093;SDS011;49183;51.380;0.098;2023-05-07T03:05:45;27.70;;;17.35;;
63093;SDS011;49183;51.380;0.098;2023-05-07T03:08:13;35.13;;;17.88;;
63093;SDS011;49183;51.380;0.098;2023-05-07T03:10:40;29.75;;;17.10;;
63093;SDS011;49183;51.380;0.098;2023-05-07T03:13:08;31.60;;;18.92;;
63093;SDS011;49183;51.380;0.098;2023-05-07T03:15:36;22.58;;;15.35;;
63093;SDS011;49183;51.380;0.098;2023-05-07T03:18:04;26.10;;;15.40;;
63093;SDS011;49183;51.380;0.098;2023-05-07T03:20:32;24.92;;;14.73;;
63093;SDS011;49183;51.380;0.098;2023-05-07T03:23:00;25.67;;;13.50;;
63093;SDS011;49183;51.380;0.098;2023-05-07T03:25:28;23.05;;;11.40;;
63093;SDS011;49183;51.380;0.098;2023-05-07T03:27:57;18.23;;;11.38;;
63093;SDS011;49183;51.380;0.098;2023-05-07T03:30:33;22.25;;;12.27;;
63093;SDS011;49183;51.380;0.098;2023-05-07T03:33:00;20.15;;;11.00;;
63093;SDS011;49183;51.380;0.098;2023-05-07T03:35:28;19.20;;;9.82;;
63093;SDS011;49183;51.380;0.098;2023-05-07T03:37:56;15.27;;;9.80;;
63093;SDS011;49183;51.380;0.098;2023-05-07T03:40:27;16.83;;;9.23;;
63093;SDS011;49183;51.380;0.098;2023-05-07T03:42:55;16.85;;;9.80;;
63093;SDS011;49183;51.380;0.098;2023-05-07T03:45:26;19.02;;;10.70;;
63093;SDS011;49183;51.380;0.098;2023-05-07T03:48:06;18.17;;;9.95;;
63093;SDS011;49183;51.380;0.098;2023-05-07T03:50:33;16.08;;;9.77;;
63093;SDS011;49183;51.380;0.098;2023-05-07T03:53:01;19.08;;;10.07;;
63093;SDS011;49183;51.380;0.098;2023-05-07T03:55:30;16.48;;;10.05;;
63093;SDS011;49183;51.380;0.098;2023-05-07T03:57:59;13.73;;;9.02;;
63093;SDS011;49183;51.380;0.098;2023-05-07T04:00:28;15.07;;;9.45;;
63093;SDS011;49183;51.380;0.098;2023-05-07T04:02:58;17.20;;;9.48;;
63093;SDS011;49183;51.380;0.098;2023-05-07T04:05:29;13.23;;;10.00;;
63093;SDS011;49183;51.380;0.098;2023-05-07T04:08:01;21.05;;;9.95;;
63093;SDS011;49183;51.380;0.098;2023-05-07T04:10:38;15.85;;;9.75;;
63093;SDS011;49183;51.380;0.098;2023-05-07T04:13:09;16.25;;;9.55;;
63093;SDS011;49183;51.380;0.098;2023-05-07T04:15:38;16.23;;;9.13;;
63093;SDS011;49183;51.380;0.098;2023-05-07T04:18:09;19.73;;;9.90;;
63093;SDS011;49183;51.380;0.098;2023-05-07T04:20:37;20.38;;;9.50;;
63093;SDS011;49183;51.380;0.098;2023-05-07T04:23:09;17.52;;;10.02;;
63093;SDS011;49183;51.380;0.098;2023-05-07T04:25:37;14.85;;;9.23;;
63093;SDS011;49183;51.380;0.098;2023-05-07T04:28:11;15.70;;;9.43;;
63093;SDS011;49183;51.380;0.098;2023-05-07T04:30:40;16.05;;;8.88;;
63093;SDS011;49183;51.380;0.098;2023-05-07T04:33:08;18.65;;;9.23;;
63093;SDS011;49183;51.380;0.098;2023-05-07T04:35:38;12.75;;;8.43;;
63093;SDS011;49183;51.380;0.098;2023-05-07T04:38:06;16.17;;;8.68;;
63093;SDS011;49183;51.380;0.098;2023-05-07T04:40:35;15.77;;;8.97;;
63093;SDS011;49183;51.380;0.098;2023-05-07T04:43:03;14.75;;;8.68;;
63093;SDS011;49183;51.380;0.098;2023-05-07T04:45:38;16.33;;;8.50;;
63093;SDS011;49183;51.380;0.098;2023-05-07T04:48:09;14.27;;;8.88;;
63093;SDS011;49183;51.380;0.098;2023-05-07T04:50:39;17.00;;;9.60;;
63093;SDS011;49183;51.380;0.098;2023-05-07T04:53:08;14.75;;;8.80;;
63093;SDS011;49183;51.380;0.098;2023-05-07T04:55:36;17.40;;;10.17;;
63093;SDS011;49183;51.380;0.098;2023-05-07T04:58:04;17.13;;;9.80;;
63093;SDS011;49183;51.380;0.098;2023-05-07T05:00:34;14.18;;;8.35;;
63093;SDS011;49183;51.380;0.098;2023-05-07T05:03:07;17.25;;;9.07;;
63093;SDS011;49183;51.380;0.098;2023-05-07T05:05:39;17.20;;;8.85;;
63093;SDS011;49183;51.380;0.098;2023-05-07T05:08:07;15.20;;;10.40;;
63093;SDS011;49183;51.380;0.098;2023-05-07T05:10:37;16.10;;;9.43;;
63093;SDS011;49183;51.380;0.098;2023-05-07T05:13:06;18.70;;;9.25;;
63093;SDS011;49183;51.380;0.098;2023-05-07T05:18:02;21.25;;;9.88;;
63093;SDS011;49183;51.380;0.098;2023-05-07T05:20:30;17.85;;;9.48;;
63093;SDS011;49183;51.380;0.098;2023-05-07T05:22:58;12.93;;;8.18;;
63093;SDS011;49183;51.380;0.098;2023-05-07T05:25:26;18.13;;;9.07;;
63093;SDS011;49183;51.380;0.098;2023-05-07T05:27:55;17.40;;;8.68;;
63093;SDS011;49183;51.380;0.098;2023-05-07T05:30:24;17.50;;;8.57;;
63093;SDS011;49183;51.380;0.098;2023-05-07T05:32:51;15.43;;;8.07;;
63093;SDS011;49183;51.380;0.098;2023-05-07T05:35:19;15.55;;;8.75;;
63093;SDS011;49183;51.380;0.098;2023-05-07T05:37:47;12.52;;;8.80;;
63093;SDS011;49183;51.380;0.098;2023-05-07T05:42:43;13.32;;;7.65;;
63093;SDS011;49183;51.380;0.098;2023-05-07T05:45:12;17.30;;;8.68;;
63093;SDS011;49183;51.380;0.098;2023-05-07T05:47:40;18.63;;;8.90;;
63093;SDS011;49183;51.380;0.098;2023-05-07T05:50:08;15.32;;;8.02;;
63093;SDS011;49183;51.380;0.098;2023-05-07T05:52:37;18.10;;;8.30;;
63093;SDS011;49183;51.380;0.098;2023-05-07T05:55:05;17.15;;;8.35;;
63093;SDS011;49183;51.380;0.098;2023-05-07T05:57:35;12.35;;;7.93;;
63093;SDS011;49183;51.380;0.098;2023-05-07T06:00:03;12.43;;;6.85;;
63093;SDS011;49183;51.380;0.098;2023-05-07T06:02:33;10.73;;;7.07;;
63093;SDS011;49183;51.380;0.098;2023-05-07T06:05:01;11.00;;;6.75;;
63093;SDS011;49183;51.380;0.098;2023-05-07T06:07:30;11.50;;;7.30;;
63093;SDS011;49183;51.380;0.098;2023-05-07T06:09:57;9.38;;;6.00;;
63093;SDS011;49183;51.380;0.098;2023-05-07T06:12:25;13.55;;;6.18;;
63093;SDS011;49183;51.380;0.098;2023-05-07T06:14:53;10.27;;;6.10;;
63093;SDS011;49183;51.380;0.098;2023-05-07T06:17:20;10.98;;;6.78;;
63093;SDS011;49183;51.380;0.098;2023-05-07T06:22:19;13.32;;;6.72;;
63093;SDS011;49183;51.380;0.098;2023-05-07T06:24:47;12.27;;;7.35;;
63093;SDS011;49183;51.380;0.098;2023-05-07T06:27:15;11.65;;;5.90;;
63093;SDS011;49183;51.380;0.098;2023-05-07T06:29:44;9.85;;;5.75;;
63093;SDS011;49183;51.380;0.098;2023-05-07T06:32:14;5.82;;;4.38;;
63093;SDS011;49183;51.380;0.098;2023-05-07T06:34:45;7.10;;;4.18;;
63093;SDS011;49183;51.380;0.098;2023-05-07T06:37:13;7.70;;;4.35;;
63093;SDS011;49183;51.380;0.098;2023-05-07T06:39:57;7.82;;;4.65;;
63093;SDS011;49183;51.380;0.098;2023-05-07T06:42:27;6.65;;;4.88;;
63093;SDS011;49183;51.380;0.098;2023-05-07T06:45:00;10.30;;;5.03;;
63093;SDS011;49183;51.380;0.098;2023-05-07T06:47:30;5.35;;;4.13;;
63093;SDS011;49183;51.380;0.098;2023-05-07T06:49:57;5.28;;;4.18;;
63093;SDS011;49183;51.380;0.098;2023-05-07T06:52:29;6.03;;;3.80;;
63093;SDS011;49183;51.380;0.098;2023-05-07T06:54:57;5.25;;;3.97;;
63093;SDS011;49183;51.380;0.098;2023-05-07T06:57:26;6.82;;;3.70;;
63093;SDS011;49183;51.380;0.098;2023-05-07T06:59:54;6.88;;;3.50;;
63093;SDS011;49183;51.380;0.098;2023-05-07T07:02:21;12.27;;;4.00;;
63093;SDS011;49183;51.380;0.098;2023-05-07T07:04:50;7.50;;;3.47;;
63093;SDS011;49183;51.380;0.098;2023-05-07T07:07:18;8.73;;;4.07;;
63093;SDS011;49183;51.380;0.098;2023-05-07T07:09:49;7.35;;;3.40;;
63093;SDS011;49183;51.380;0.098;2023-05-07T07:12:18;6.55;;;3.40;;
63093;SDS011;49183;51.380;0.098;2023-05-07T07:14:46;8.13;;;3.47;;
63093;SDS011;49183;51.380;0.098;2023-05-07T07:17:14;4.53;;;3.47;;
63093;SDS011;49183;51.380;0.098;2023-05-07T07:19:42;8.57;;;3.20;;
63093;SDS011;49183;51.380;0.098;2023-05-07T07:22:10;5.35;;;3.03;;
63093;SDS011;49183;51.380;0.098;2023-05-07T07:24:38;4.72;;;3.33;;
63093;SDS011;49183;51.380;0.098;2023-05-07T07:27:08;3.75;;;2.40;;
63093;SDS011;49183;51.380;0.098;2023-05-07T07:29:36;5.40;;;3.40;;
63093;SDS011;49183;51.380;0.098;2023-05-07T07:32:04;5.05;;;3.05;;
63093;SDS011;49183;51.380;0.098;2023-05-07T07:34:32;7.65;;;3.45;;
63093;SDS011;49183;51.380;0.098;2023-05-07T07:37:01;4.95;;;3.30;;
63093;SDS011;49183;51.380;0.098;2023-05-07T07:39:33;6.82;;;3.25;;
63093;SDS011;49183;51.380;0.098;2023-05-07T07:42:02;4.13;;;2.65;;
63093;SDS011;49183;51.380;0.098;2023-05-07T07:44:30;5.70;;;3.67;;
63093;SDS011;49183;51.380;0.098;2023-05-07T07:47:04;5.18;;;3.45;;
63093;SDS011;49183;51.380;0.098;2023-05-07T07:49:32;5.53;;;4.25;;
63093;SDS011;49183;51.380;0.098;2023-05-07T07:52:03;10.07;;;2.92;;
63093;SDS011;49183;51.380;0.098;2023-05-07T07:54:33;4.30;;;2.65;;
63093;SDS011;49183;51.380;0.098;2023-05-07T07:57:02;5.57;;;3.58;;
63093;SDS011;49183;51.380;0.098;2023-05-07T07:59:33;6.80;;;3.28;;
63093;SDS011;49183;51.380;0.098;2023-05-07T08:02:01;5.55;;;2.75;;
63093;SDS011;49183;51.380;0.098;2023-05-07T08:04:29;5.55;;;2.72;;
63093;SDS011;49183;51.380;0.098;2023-05-07T08:07:03;6.97;;;3.90;;
63093;SDS011;49183;51.380;0.098;2023-05-07T08:09:34;4.93;;;2.50;;
63093;SDS011;49183;51.380;0.098;2023-05-07T08:12:03;7.90;;;2.58;;
63093;SDS011;49183;51.380;0.098;2023-05-07T08:14:33;7.55;;;3.20;;
63093;SDS011;49183;51.380;0.098;2023-05-07T08:17:05;4.30;;;2.95;;
63093;SDS011;49183;51.380;0.098;2023-05-07T08:19:33;4.05;;;2.17;;
63093;SDS011;49183;51.380;0.098;2023-05-07T08:22:03;5.35;;;2.85;;
63093;SDS011;49183;51.380;0.098;2023-05-07T08:24:34;4.63;;;2.47;;
63093;SDS011;49183;51.380;0.098;2023-05-07T08:27:01;3.10;;;1.73;;
63093;SDS011;49183;51.380;0.098;2023-05-07T08:29:29;4.68;;;1.70;;
63093;SDS011;49183;51.380;0.098;2023-05-07T08:31:59;4.93;;;2.47;;
63093;SDS011;49183;51.380;0.098;2023-05-07T08:34:27;4.15;;;2.10;;
63093;SDS011;49183;51.380;0.098;2023-05-07T08:36:59;7.32;;;2.58;;
63093;SDS011;49183;51.380;0.098;2023-05-07T08:39:27;5.20;;;2.50;;
63093;SDS011;49183;51.380;0.098;2023-05-07T08:41:55;4.40;;;1.95;;
63093;SDS011;49183;51.380;0.098;2023-05-07T08:44:26;4.90;;;1.90;;
63093;SDS011;49183;51.380;0.098;2023-05-07T08:46:56;6.20;;;2.25;;
63093;SDS011;49183;51.380;0.098;2023-05-07T08:49:27;6.53;;;2.60;;
63093;SDS011;49183;51.380;0.098;2023-05-07T08:51:56;3.38;;;2.42;;
63093;SDS011;49183;51.380;0.098;2023-05-07T08:54:25;5.65;;;2.75;;
63093;SDS011;49183;51.380;0.098;2023-05-07T08:56:54;5.45;;;2.83;;
63093;SDS011;49183;51.380;0.098;2023-05-07T08:59:22;5.25;;;2.78;;
63093;SDS011;49183;51.380;0.098;2023-05-07T09:01:49;4.55;;;2.97;;
63093;SDS011;49183;51.380;0.098;2023-05-07T09:04:17;5.18;;;2.67;;
63093;SDS011;49183;51.380;0.098;2023-05-07T09:06:46;4.85;;;2.35;;
63093;SDS011;49183;51.380;0.098;2023-05-07T09:09:16;3.55;;;2.17;;
63093;SDS011;49183;51.380;0.098;2023-05-07T09:11:46;5.88;;;2.40;;
63093;SDS011;49183;51.380;0.098;2023-05-07T09:14:17;6.45;;;2.42;;
63093;SDS011;49183;51.380;0.098;2023-05-07T09:16:45;3.70;;;1.70;;
63093;SDS011;49183;51.380;0.098;2023-05-07T09:19:14;3.15;;;1.83;;
63093;SDS011;49183;51.380;0.098;2023-05-07T09:21:45;4.78;;;2.55;;
63093;SDS011;49183;51.380;0.098;2023-05-07T09:26:43;4.78;;;1.67;;
63093;SDS011;49183;51.380;0.098;2023-05-07T09:29:13;3.50;;;2.25;;
63093;SDS011;49183;51.380;0.098;2023-05-07T09:31:44;3.00;;;1.80;;
63093;SDS011;49183;51.380;0.098;2023-05-07T09:34:15;5.05;;;1.90;;
63093;SDS011;49183;51.380;0.098;2023-05-07T09:36:45;3.80;;;2.10;;
63093;SDS011;49183;51.380;0.098;2023-05-07T09:39:13;4.85;;;1.75;;
63093;SDS011;49183;51.380;0.098;2023-05-07T09:41:45;3.65;;;2.40;;
63093;SDS011;49183;51.380;0.098;2023-05-07T09:44:20;2.55;;;2.05;;
63093;SDS011;49183;51.380;0.098;2023-05-07T09:46:53;3.15;;;1.80;;
63093;SDS011;49183;51.380;0.098;2023-05-07T09:49:29;5.63;;;1.75;;
63093;SDS011;49183;51.380;0.098;2023-05-07T09:52:07;4.32;;;1.83;;
63093;SDS011;49183;51.380;0.098;2023-05-07T09:54:42;2.88;;;1.55;;
63093;SDS011;49183;51.380;0.098;2023-05-07T09:57:13;2.30;;;1.70;;
63093;SDS011;49183;51.380;0.098;2023-05-07T09:59:44;2.90;;;1.30;;
63093;SDS011;49183;51.380;0.098;2023-05-07T10:02:16;2.75;;;1.52;;
63093;SDS011;49183;51.380;0.098;2023-05-07T10:04:49;5.40;;;1.88;;
63093;SDS011;49183;51.380;0.098;2023-05-07T10:07:22;2.65;;;1.77;;
63093;SDS011;49183;51.380;0.098;2023-05-07T10:09:53;3.25;;;1.75;;
63093;SDS011;49183;51.380;0.098;2023-05-07T10:12:29;3.00;;;1.63;;
63093;SDS011;49183;51.380;0.098;2023-05-07T10:15:10;4.20;;;2.13;;
63093;SDS011;49183;51.380;0.098;2023-05-07T10:17:42;3.08;;;1.80;;
63093;SDS011;49183;51.380;0.098;2023-05-07T10:20:11;5.28;;;1.65;;
63093;SDS011;49183;51.380;0.098;2023-05-07T10:22:43;2.08;;;1.17;;
63093;SDS011;49183;51.380;0.098;2023-05-07T10:25:25;2.97;;;1.60;;
63093;SDS011;49183;51.380;0.098;2023-05-07T10:28:04;5.00;;;1.65;;
63093;SDS011;49183;51.380;0.098;2023-05-07T10:33:26;2.47;;;1.50;;
63093;SDS011;49183;51.380;0.098;2023-05-07T10:35:59;5.50;;;1.75;;
63093;SDS011;49183;51.380;0.098;2023-05-07T10:38:29;4.45;;;1.90;;
63093;SDS011;49183;51.380;0.098;2023-05-07T10:40:59;4.95;;;1.45;;
63093;SDS011;49183;51.380;0.098;2023-05-07T10:43:40;3.70;;;1.70;;
63093;SDS011;49183;51.380;0.098;2023-05-07T10:46:16;3.85;;;1.70;;
63093;SDS011;49183;51.380;0.098;2023-05-07T10:51:35;3.85;;;1.60;;
63093;SDS011;49183;51.380;0.098;2023-05-07T10:56:49;4.57;;;1.52;;
63093;SDS011;49183;51.380;0.098;2023-05-07T10:59:33;3.72;;;1.48;;
63093;SDS011;49183;51.380;0.098;2023-05-07T11:02:13;4.68;;;1.33;;
63093;SDS011;49183;51.380;0.098;2023-05-07T11:08:08;3.53;;;1.15;;
63093;SDS011;49183;51.380;0.098;2023-05-07T11:10:56;3.17;;;1.35;;
63093;SDS011;49183;51.380;0.098;2023-05-07T11:14:01;4.47;;;1.58;;
63093;SDS011;49183;51.380;0.098;2023-05-07T11:16:36;2.65;;;1.50;;
63093;SDS011;49183;51.380;0.098;2023-05-07T11:25:34;3.25;;;1.30;;
63093;SDS011;49183;51.380;0.098;2023-05-07T11:28:09;2.65;;;0.98;;
63093;SDS011;49183;51.380;0.098;2023-05-07T11:30:47;1.55;;;1.20;;
63093;SDS011;49183;51.380;0.098;2023-05-07T11:33:17;1.05;;;0.85;;
63093;SDS011;49183;51.380;0.098;2023-05-07T11:39:06;2.55;;;1.20;;
63093;SDS011;49183;51.380;0.098;2023-05-07T11:41:53;2.03;;;1.15;;
63093;SDS011;49183;51.380;0.098;2023-05-07T11:44:21;2.27;;;1.40;;
63093;SDS011;49183;51.380;0.098;2023-05-07T11:46:49;2.63;;;1.75;;
63093;SDS011;49183;51.380;0.098;2023-05-07T11:49:16;2.13;;;1.43;;
63093;SDS011;49183;51.380;0.098;2023-05-07T11:51:45;3.20;;;1.52;;
63093;SDS011;49183;51.380;0.098;2023-05-07T11:54:15;1.98;;;1.00;;
63093;SDS011;49183;51.380;0.098;2023-05-07T11:56:43;1.30;;;1.00;;
63093;SDS011;49183;51.380;0.098;2023-05-07T11:59:16;3.58;;;1.58;;
63093;SDS011;49183;51.380;0.098;2023-05-07T12:01:47;2.13;;;1.20;;
63093;SDS011;49183;51.380;0.098;2023-05-07T12:04:18;2.05;;;1.50;;
63093;SDS011;49183;51.380;0.098;2023-05-07T12:06:48;5.00;;;2.17;;
63093;SDS011;49183;51.380;0.098;2023-05-07T12:09:17;3.10;;;1.20;;
63093;SDS011;49183;51.380;0.098;2023-05-07T12:11:45;4.13;;;1.67;;
63093;SDS011;49183;51.380;0.098;2023-05-07T12:14:13;2.20;;;1.30;;
63093;SDS011;49183;51.380;0.098;2023-05-07T12:16:43;2.72;;;1.67;;
63093;SDS011;49183;51.380;0.098;2023-05-07T12:19:12;4.38;;;1.50;;
63093;SDS011;49183;51.380;0.098;2023-05-07T12:21:42;4.85;;;1.45;;
63093;SDS011;49183;51.380;0.098;2023-05-07T12:24:09;3.65;;;1.40;;
63093;SDS011;49183;51.380;0.098;2023-05-07T12:26:38;2.50;;;0.90;;
63093;SDS011;49183;51.380;0.098;2023-05-07T12:29:07;4.63;;;1.67;;
63093;SDS011;49183;51.380;0.098;2023-05-07T12:31:35;2.77;;;1.07;;
63093;SDS011;49183;51.380;0.098;2023-05-07T12:34:03;2.27;;;1.27;;
63093;SDS011;49183;51.380;0.098;2023-05-07T12:36:40;3.63;;;1.23;;
63093;SDS011;49183;51.380;0.098;2023-05-07T12:39:08;3.15;;;1.25;;
63093;SDS011;49183;51.380;0.098;2023-05-07T12:41:55;3.67;;;1.10;;
63093;SDS011;49183;51.380;0.098;2023-05-07T12:44:28;3.42;;;1.33;;
63093;SDS011;49183;51.380;0.098;2023-05-07T12:47:03;2.55;;;1.40;;
63093;SDS011;49183;51.380;0.098;2023-05-07T12:49:31;3.15;;;1.42;;
63093;SDS011;49183;51.380;0.098;2023-05-07T12:52:01;1.92;;;0.98;;
63093;SDS011;49183;51.380;0.098;2023-05-07T12:54:30;2.17;;;1.08;;
63093;SDS011;49183;51.380;0.098;2023-05-07T12:57:05;2.75;;;0.93;;
63093;SDS011;49183;51.380;0.098;2023-05-07T12:59:38;4.45;;;1.10;;
63093;SDS011;49183;51.380;0.098;2023-05-07T13:02:08;2.88;;;1.00;;
63093;SDS011;49183;51.380;0.098;2023-05-07T13:04:38;1.58;;;0.90;;
63093;SDS011;49183;51.380;0.098;2023-05-07T13:07:06;1.85;;;1.10;;
63093;SDS011;49183;51.380;0.098;2023-05-07T13:09:34;3.23;;;0.90;;
63093;SDS011;49183;51.380;0.098;2023-05-07T13:12:04;1.27;;;0.88;;
63093;SDS011;49183;51.380;0.098;2023-05-07T13:14:31;4.10;;;1.40;;
63093;SDS011;49183;51.380;0.098;2023-05-07T13:16:59;3.33;;;1.08;;
63093;SDS011;49183;51.380;0.098;2023-05-07T13:19:26;2.53;;;1.27;;
63093;SDS011;49183;51.380;0.098;2023-05-07T13:21:57;2.33;;;1.15;;
63093;SDS011;49183;51.380;0.098;2023-05-07T13:24:24;3.13;;;1.33;;
63093;SDS011;49183;51.380;0.098;2023-05-07T13:26:52;4.30;;;2.27;;
63093;SDS011;49183;51.380;0.098;2023-05-07T13:29:20;4.30;;;1.43;;
63093;SDS011;49183;51.380;0.098;2023-05-07T13:31:52;4.95;;;1.30;;
63093;SDS011;49183;51.380;0.098;2023-05-07T13:34:20;2.38;;;1.40;;
63093;SDS011;49183;51.380;0.098;2023-05-07T13:36:47;1.23;;;0.85;;
63093;SDS011;49183;51.380;0.098;2023-05-07T13:39:15;4.60;;;1.95;;
63093;SDS011;49183;51.380;0.098;2023-05-07T13:41:42;1.73;;;1.00;;
63093;SDS011;49183;51.380;0.098;2023-05-07T13:44:10;1.63;;;0.77;;
63093;SDS011;49183;51.380;0.098;2023-05-07T13:46:38;1.58;;;0.93;;
63093;SDS011;49183;51.380;0.098;2023-05-07T13:49:06;2.10;;;1.23;;
63093;SDS011;49183;51.380;0.098;2023-05-07T13:51:33;2.20;;;1.50;;
63093;SDS011;49183;51.380;0.098;2023-05-07T13:54:01;1.52;;;0.82;;
63093;SDS011;49183;51.380;0.098;2023-05-07T13:56:29;1.42;;;0.80;;
63093;SDS011;49183;51.380;0.098;2023-05-07T13:58:59;2.22;;;1.00;;
63093;SDS011;49183;51.380;0.098;2023-05-07T14:01:27;3.40;;;1.10;;
63093;SDS011;49183;51.380;0.098;2023-05-07T14:03:55;3.50;;;1.02;;
63093;SDS011;49183;51.380;0.098;2023-05-07T14:06:24;1.95;;;0.90;;
63093;SDS011;49183;51.380;0.098;2023-05-07T14:08:52;5.45;;;1.33;;
63093;SDS011;49183;51.380;0.098;2023-05-07T14:11:20;2.58;;;0.88;;
63093;SDS011;49183;51.380;0.098;2023-05-07T14:13:48;3.72;;;1.35;;
63093;SDS011;49183;51.380;0.098;2023-05-07T14:16:16;2.15;;;1.17;;
63093;SDS011;49183;51.380;0.098;2023-05-07T14:18:43;1.73;;;1.13;;
63093;SDS011;49183;51.380;0.098;2023-05-07T14:21:11;1.80;;;1.13;;
63093;SDS011;49183;51.380;0.098;2023-05-07T14:23:39;2.30;;;1.00;;
63093;SDS011;49183;51.380;0.098;2023-05-07T14:26:08;2.33;;;1.23;;
63093;SDS011;49183;51.380;0.098;2023-05-07T14:28:36;1.92;;;0.88;;
63093;SDS011;49183;51.380;0.098;2023-05-07T14:31:06;2.22;;;1.33;;
63093;SDS011;49183;51.380;0.098;2023-05-07T14:33:34;5.80;;;1.23;;
63093;SDS011;49183;51.380;0.098;2023-05-07T14:36:02;2.77;;;1.20;;
63093;SDS011;49183;51.380;0.098;2023-05-07T14:40:59;2.88;;;1.00;;
63093;SDS011;49183;51.380;0.098;2023-05-07T14:43:27;3.22;;;0.93;;
63093;SDS011;49183;51.380;0.098;2023-05-07T14:45:55;2.17;;;0.95;;
63093;SDS011;49183;51.380;0.098;2023-05-07T14:48:23;0.60;;;0.50;;
63093;SDS011;49183;51.380;0.098;2023-05-07T14:50:50;3.13;;;1.00;;
63093;SDS011;49183;51.380;0.098;2023-05-07T14:53:18;2.17;;;0.70;;
63093;SDS011;49183;51.380;0.098;2023-05-07T14:55:46;5.28;;;0.70;;
63093;SDS011;49183;51.380;0.098;2023-05-07T14:58:14;2.20;;;0.85;;
63093;SDS011;49183;51.380;0.098;2023-05-07T15:00:42;3.05;;;1.00;;
63093;SDS011;49183;51.380;0.098;2023-05-07T15:03:10;4.30;;;1.07;;
63093;SDS011;49183;51.380;0.098;2023-05-07T15:05:41;1.75;;;1.00;;
63093;SDS011;49183;51.380;0.098;2023-05-07T15:08:09;1.65;;;0.85;;
63093;SDS011;49183;51.380;0.098;2023-05-07T15:10:37;1.90;;;0.70;;
63093;SDS011;49183;51.380;0.098;2023-05-07T15:13:09;1.92;;;0.90;;
63093;SDS011;49183;51.380;0.098;2023-05-07T15:15:42;4.05;;;0.85;;
63093;SDS011;49183;51.380;0.098;2023-05-07T15:18:13;0.80;;;0.50;;
63093;SDS011;49183;51.380;0.098;2023-05-07T15:20:41;1.45;;;0.80;;
63093;SDS011;49183;51.380;0.098;2023-05-07T15:23:09;1.05;;;0.60;;
63093;SDS011;49183;51.380;0.098;2023-05-07T15:25:41;1.38;;;0.57;;
63093;SDS011;49183;51.380;0.098;2023-05-07T15:28:08;2.33;;;0.60;;
63093;SDS011;49183;51.380;0.098;2023-05-07T15:30:36;2.08;;;0.75;;
63093;SDS011;49183;51.380;0.098;2023-05-07T15:33:04;3.10;;;1.35;;